Time;durP1;ratioP1;P1;durP2;ratioP2;P2;SDS_P1;SDS_P2;PMS_P1;PMS_P2;Temp;Humidity;BMP_temperature;BMP_pressure;BME280_temperature;BME280_humidity;BME280_pressure;Samples;Min_cycle;Max_cycle;Signal;HPM_P1;HPM_P2
2022/11/22 00:00:24;;;;;;;3.10;2.90;;;;;;;5.35;68.31;94372.56;5014845;28;20209;-68
2022/11/22 00:02:50;;;;;;;3.23;2.90;;;;;;;5.29;68.41;94366.09;5021580;28;20214;-68
2022/11/22 00:05:15;;;;;;;2.70;2.50;;;;;;;5.25;68.13;94357.72;5016696;28;20265;-67
2022/11/22 00:07:41;;;;;;;2.43;2.30;;;;;;;5.38;67.32;94367.09;5017450;28;20254;-68
2022/11/22 00:10:09;;;;;;;2.17;2.07;;;;;;;5.41;67.69;94372.03;5022088;28;20524;-68
2022/11/22 00:12:35;;;;;;;2.70;2.50;;;;;;;5.41;67.19;94362.41;5021949;28;20285;-68
2022/11/22 00:15:00;;;;;;;2.73;2.53;;;;;;;5.30;68.15;94365.16;5020706;28;20281;-68
2022/11/22 00:17:25;;;;;;;2.53;2.30;;;;;;;5.27;68.06;94361.03;5022547;28;20194;-68
2022/11/22 00:19:51;;;;;;;2.70;2.50;;;;;;;5.27;67.62;94365.44;5022551;28;20202;-68
2022/11/22 00:22:16;;;;;;;2.47;2.30;;;;;;;5.45;67.02;94378.59;5020465;28;20198;-68
2022/11/22 00:24:43;;;;;;;2.30;2.10;;;;;;;5.41;67.33;94382.44;5017350;28;20190;-68
2022/11/22 00:27:08;;;;;;;2.43;2.23;;;;;;;5.41;67.83;94374.63;5014321;28;20198;-69
2022/11/22 00:29:34;;;;;;;2.80;2.60;;;;;;;5.43;66.80;94378.75;5022669;28;20321;-68
2022/11/22 00:31:59;;;;;;;2.80;2.60;;;;;;;5.38;67.31;94372.31;5017134;28;20285;-67
2022/11/22 00:34:24;;;;;;;2.27;2.17;;;;;;;5.39;67.16;94372.16;5020492;28;20202;-68
2022/11/22 00:36:50;;;;;;;2.57;2.37;;;;;;;5.28;67.27;94367.88;5025366;28;20194;-68
2022/11/22 00:39:15;;;;;;;2.83;2.63;;;;;;;5.29;66.93;94364.34;5025487;28;20198;-68
2022/11/22 00:41:41;;;;;;;2.80;2.60;;;;;;;5.36;67.02;94375.03;5021359;28;20211;-67
2022/11/22 00:44:06;;;;;;;3.87;2.77;;;;;;;5.34;67.25;94371.72;5017187;28;20215;-68
2022/11/22 00:46:31;;;;;;;2.80;2.60;;;;;;;5.30;67.36;94370.38;5021755;28;20186;-68
2022/11/22 00:48:57;;;;;;;3.00;2.80;;;;;;;5.29;66.97;94369.56;5022348;28;20190;-67
2022/11/22 00:51:22;;;;;;;2.90;2.70;;;;;;;5.35;66.77;94372.56;5022949;28;20206;-67
2022/11/22 00:53:48;;;;;;;2.83;2.63;;;;;;;5.36;66.92;94379.44;5023006;28;20197;-68
2022/11/22 00:56:13;;;;;;;2.90;2.70;;;;;;;5.28;67.25;94375.69;5019376;28;20281;-68
2022/11/22 00:58:38;;;;;;;3.00;2.80;;;;;;;5.24;67.08;94379.56;5020304;28;20193;-67
2022/11/22 01:01:04;;;;;;;3.20;2.90;;;;;;;5.19;67.26;94371.31;5017805;28;20215;-68
2022/11/22 01:03:29;;;;;;;3.00;2.80;;;;;;;5.18;67.28;94371.44;5014016;28;20214;-67
2022/11/22 01:05:54;;;;;;;3.20;3.00;;;;;;;5.04;67.95;94380.47;5020006;28;20198;-68
2022/11/22 01:08:20;;;;;;;3.03;2.83;;;;;;;5.23;67.37;94364.03;5020336;28;20282;-67
2022/11/22 01:10:45;;;;;;;3.07;2.87;;;;;;;5.18;67.74;94377.47;5020664;28;20193;-67
2022/11/22 01:13:11;;;;;;;3.07;2.87;;;;;;;5.07;67.84;94381.00;5022023;28;20189;-67
2022/11/22 01:15:37;;;;;;;3.63;3.33;;;;;;;5.04;68.35;94376.06;5013449;28;20193;-67
2022/11/22 01:18:02;;;;;;;3.37;3.17;;;;;;;5.03;69.17;94378.81;5020631;28;20199;-67
2022/11/22 01:20:29;;;;;;;3.93;3.50;;;;;;;5.07;69.21;94361.94;5020039;28;20237;-68
2022/11/22 01:22:55;;;;;;;3.70;3.40;;;;;;;5.09;68.96;94367.88;5015398;28;20197;-67
2022/11/22 01:25:21;;;;;;;4.27;3.97;;;;;;;5.03;69.02;94358.81;5019412;28;21943;-68
2022/11/22 01:27:46;;;;;;;5.13;3.90;;;;;;;5.03;68.67;94366.63;5019739;28;20195;-69
2022/11/22 01:30:12;;;;;;;3.63;3.33;;;;;;;5.04;68.80;94372.66;5023774;28;20221;-68
2022/11/22 01:32:37;;;;;;;4.03;3.73;;;;;;;4.97;68.78;94379.34;5017010;28;20194;-66
2022/11/22 01:35:03;;;;;;;3.87;3.57;;;;;;;4.92;68.98;94376.31;5018328;28;20187;-67
2022/11/22 01:37:29;;;;;;;4.23;3.83;;;;;;;4.90;69.12;94366.03;5021337;28;20201;-67
2022/11/22 01:39:54;;;;;;;4.10;3.80;;;;;;;4.85;69.11;94369.03;5022985;28;20190;-66
2022/11/22 01:42:19;;;;;;;4.10;3.80;;;;;;;4.77;69.01;94362.84;5025866;28;20186;-67
2022/11/22 01:44:47;;;;;;;4.20;3.80;;;;;;;4.70;69.37;94370.34;5027750;28;20192;-67
2022/11/22 01:47:16;;;;;;;4.07;3.77;;;;;;;4.62;69.58;94365.81;5022884;28;20218;-66
2022/11/22 01:49:53;;;;;;;4.40;4.00;;;;;;;4.70;69.28;94367.75;5028635;28;20200;-66
2022/11/22 01:52:22;;;;;;;4.10;3.80;;;;;;;4.65;69.82;94369.91;5025784;28;20331;-68
2022/11/22 01:54:55;;;;;;;4.83;4.43;;;;;;;4.74;69.63;94374.34;5021582;28;20196;-67
2022/11/22 01:57:24;;;;;;;4.00;3.70;;;;;;;4.76;68.96;94369.84;5026910;28;20219;-67
2022/11/22 01:59:58;;;;;;;4.13;3.83;;;;;;;4.70;68.84;94365.13;5023497;28;20186;-67
2022/11/22 02:02:24;;;;;;;4.10;3.80;;;;;;;4.73;68.89;94359.69;5023019;28;20224;-68
2022/11/22 02:04:52;;;;;;;4.60;4.20;;;;;;;4.66;68.95;94355.97;5018807;28;20191;-69
2022/11/22 02:07:23;;;;;;;4.40;4.10;;;;;;;4.61;69.52;94363.34;5020691;28;20186;-69
2022/11/22 02:09:50;;;;;;;4.47;4.13;;;;;;;4.62;69.36;94365.81;5028111;28;20228;-69
2022/11/22 02:12:17;;;;;;;4.63;4.23;;;;;;;4.60;69.85;94369.50;5018193;28;20190;-69
2022/11/22 02:14:43;;;;;;;4.83;4.43;;;;;;;4.62;70.06;94371.03;5026311;28;20198;-69
2022/11/22 02:17:09;;;;;;;4.43;4.10;;;;;;;4.69;69.63;94368.72;5024025;28;20198;-68
2022/11/22 02:19:42;;;;;;;5.20;4.80;;;;;;;4.78;69.26;94367.91;5022614;28;20182;-68
2022/11/22 02:22:44;;;;;;;5.43;5.03;;;;;;;4.64;70.03;94373.50;5024945;28;20186;-68
2022/11/22 02:25:25;;;;;;;5.33;4.90;;;;;;;4.65;70.55;94380.34;5024252;28;20201;-68
2022/11/22 02:27:51;;;;;;;5.43;4.93;;;;;;;4.52;71.34;94372.78;5024557;28;20237;-68
2022/11/22 02:30:17;;;;;;;5.50;5.00;;;;;;;4.45;71.52;94378.63;5030314;28;20225;-68
2022/11/22 02:32:43;;;;;;;5.87;5.27;;;;;;;4.31;72.49;94367.59;5027009;28;20221;-68
2022/11/22 02:35:27;;;;;;;5.73;4.93;;;;;;;4.20;72.98;94365.09;5031192;28;20200;-68
2022/11/22 02:37:59;;;;;;;5.10;4.70;;;;;;;4.15;73.13;94378.47;5029279;28;20213;-68
2022/11/22 02:40:26;;;;;;;6.20;5.57;;;;;;;4.15;73.15;94378.47;5032593;28;20218;-68
2022/11/22 02:42:59;;;;;;;5.70;5.27;;;;;;;4.20;72.75;94372.91;5035097;28;20218;-67
2022/11/22 02:45:24;;;;;;;5.87;5.40;;;;;;;4.17;72.29;94368.78;5030032;28;20187;-67
2022/11/22 02:47:50;;;;;;;6.10;5.50;;;;;;;4.21;72.24;94364.13;5034188;28;20227;-68
2022/11/22 02:50:15;;;;;;;5.30;4.90;;;;;;;4.21;71.91;94361.53;5032368;28;20246;-68
2022/11/22 02:52:41;;;;;;;5.63;5.13;;;;;;;4.18;72.36;94357.41;5026270;28;20182;-68
2022/11/22 02:55:07;;;;;;;6.07;5.40;;;;;;;4.10;72.79;94356.41;5030532;28;20250;-68
2022/11/22 02:57:32;;;;;;;5.17;4.77;;;;;;;4.11;72.58;94347.63;5029186;28;20190;-68
2022/11/22 02:59:57;;;;;;;6.30;5.40;;;;;;;4.28;71.85;94351.44;5028817;28;20182;-67
2022/11/22 03:02:23;;;;;;;5.47;5.07;;;;;;;4.18;72.52;94356.59;5028334;28;20191;-68
2022/11/22 03:04:48;;;;;;;5.63;5.13;;;;;;;4.06;73.16;94355.00;5029836;28;20186;-74
2022/11/22 03:07:15;;;;;;;5.83;5.33;;;;;;;4.10;72.65;94356.41;5029703;28;20188;-74
2022/11/22 03:09:41;;;;;;;6.23;5.73;;;;;;;4.09;72.74;94352.13;5031867;28;20179;-74
2022/11/22 03:12:06;;;;;;;5.17;4.77;;;;;;;4.10;73.09;94348.59;5028653;28;20235;-74
2022/11/22 03:14:32;;;;;;;6.67;6.07;;;;;;;3.92;73.94;94349.16;5025068;28;20213;-74
2022/11/22 03:16:57;;;;;;;6.80;5.70;;;;;;;3.87;74.51;94347.91;5029922;28;20215;-74
2022/11/22 03:19:23;;;;;;;6.93;6.03;;;;;;;3.92;74.58;94351.78;5033076;28;20193;-75
2022/11/22 03:21:49;;;;;;;6.77;6.17;;;;;;;3.94;74.24;94349.88;5027425;28;20209;-74
2022/11/22 03:24:14;;;;;;;7.33;5.67;;;;;;;3.90;74.34;94350.25;5024512;28;20186;-74
2022/11/22 03:26:40;;;;;;;6.60;6.10;;;;;;;3.88;74.52;94357.38;5019627;28;20210;-74
2022/11/22 03:29:05;;;;;;;6.47;5.93;;;;;;;3.95;73.71;94355.88;5028364;28;20233;-74
2022/11/22 03:31:31;;;;;;;6.63;6.13;;;;;;;3.94;73.48;94355.06;5026964;28;20181;-76
2022/11/22 03:33:56;;;;;;;6.67;6.07;;;;;;;3.84;73.84;94348.16;5030857;28;20194;-75
2022/11/22 03:36:22;;;;;;;7.53;6.83;;;;;;;3.66;74.63;94340.94;5021055;28;20204;-75
2022/11/22 03:38:49;;;;;;;6.77;6.17;;;;;;;3.63;75.29;94338.56;5022219;28;20191;-76
2022/11/22 03:41:15;;;;;;;6.50;5.70;;;;;;;3.71;75.51;94343.16;5021874;28;20507;-76
2022/11/22 03:43:40;;;;;;;6.93;6.33;;;;;;;3.67;75.09;94342.59;5014674;28;20281;-76
2022/11/22 03:46:06;;;;;;;6.30;5.77;;;;;;;3.56;74.83;94324.47;5023180;28;20190;-75
2022/11/22 03:48:32;;;;;;;6.30;5.73;;;;;;;3.65;74.70;94344.47;5021829;28;20294;-75
2022/11/22 03:51:04;;;;;;;6.27;5.63;;;;;;;3.56;75.48;94349.63;5022823;28;20281;-75
2022/11/22 03:53:31;;;;;;;7.37;6.57;;;;;;;3.29;76.68;94348.31;5020288;28;20182;-75
2022/11/22 03:55:56;;;;;;;8.23;6.33;;;;;;;3.28;77.21;94351.84;5027167;28;20182;-74
2022/11/22 03:58:21;;;;;;;6.60;6.10;;;;;;;3.37;76.67;94350.28;5018132;28;20316;-75
2022/11/22 04:00:47;;;;;;;7.50;6.80;;;;;;;3.30;77.03;94355.16;5016343;28;20215;-74
2022/11/22 04:03:12;;;;;;;8.47;6.13;;;;;;;3.33;76.63;94365.31;5019047;28;20195;-74
2022/11/22 04:05:38;;;;;;;7.20;6.50;;;;;;;3.48;76.07;94365.84;5015243;28;20252;-74
2022/11/22 04:08:03;;;;;;;7.13;6.53;;;;;;;3.40;76.36;94369.06;5025434;28;20198;-74
2022/11/22 04:10:29;;;;;;;7.73;5.70;;;;;;;3.33;76.49;94369.69;5021480;28;20209;-74
2022/11/22 04:12:58;;;;;;;8.50;6.87;;;;;;;3.35;76.04;94371.22;5022162;28;20306;-75
2022/11/22 04:15:24;;;;;;;7.27;6.60;;;;;;;3.34;75.98;94372.13;5019816;28;20194;-74
2022/11/22 04:17:50;;;;;;;7.33;6.63;;;;;;;3.33;75.83;94373.09;5018080;28;20190;-74
2022/11/22 04:23:07;;;;;;;8.07;6.60;;;;;;;3.22;74.84;94368.75;5016730;28;20197;-76
2022/11/22 04:25:34;;;;;;;10.03;7.40;;;;;;;3.09;74.60;94381.91;5024923;28;20281;-75
2022/11/22 04:28:00;;;;;;;7.40;6.70;;;;;;;3.20;75.55;94380.22;5020509;28;20197;-74
2022/11/22 04:32:44;;;;;;;7.30;6.63;;;;;;;3.26;75.11;94396.16;5025757;28;20215;-74
2022/11/22 04:33:12;;;;;;;7.37;6.60;;;;;;;3.23;75.70;94379.97;5024590;28;20293;-74
2022/11/22 04:35:38;;;;;;;7.23;6.53;;;;;;;3.16;75.92;94390.06;5023960;28;20252;-75
2022/11/22 04:38:04;;;;;;;8.03;7.33;;;;;;;3.25;75.58;94391.06;5030592;28;20190;-75
2022/11/22 04:40:30;;;;;;;8.17;7.27;;;;;;;3.21;75.58;94387.91;5022879;28;20563;-74
2022/11/22 04:45:40;;;;;;;10.60;8.20;;;;;;;3.08;75.88;94405.41;5024026;28;20185;-75
2022/11/22 04:48:05;;;;;;;7.77;7.13;;;;;;;3.06;75.77;94405.53;5025874;28;20186;-75
2022/11/22 04:53:16;;;;;;;9.77;8.87;;;;;;;3.13;75.65;94413.69;5028398;28;20201;-75
2022/11/22 04:55:44;;;;;;;9.47;8.53;;;;;;;3.11;75.19;94414.75;5032249;28;20279;-74
2022/11/22 04:58:09;;;;;;;10.10;9.00;;;;;;;3.08;75.60;94414.03;5027913;28;20287;-78
2022/11/22 05:00:35;;;;;;;9.17;8.20;;;;;;;3.03;75.58;94421.34;5030517;28;20226;-75
2022/11/22 05:03:01;;;;;;;10.17;9.00;;;;;;;3.00;75.68;94421.59;5031063;28;20243;-75
2022/11/22 05:05:27;;;;;;;9.97;8.70;;;;;;;2.97;75.80;94423.63;5030797;28;20190;-76
2022/11/22 05:07:53;;;;;;;9.00;8.17;;;;;;;2.96;75.72;94429.75;5028063;28;20182;-74
2022/11/22 05:10:18;;;;;;;9.33;8.53;;;;;;;2.97;76.16;94419.25;5030534;28;20189;-74
2022/11/22 05:12:44;;;;;;;9.27;8.47;;;;;;;3.03;76.02;94415.34;5034251;28;20276;-75
2022/11/22 05:15:10;;;;;;;9.70;8.67;;;;;;;3.02;76.04;94413.69;5028034;28;20194;-74
2022/11/22 05:17:37;;;;;;;11.30;8.07;;;;;;;3.00;75.67;94416.41;5028773;28;20235;-75
2022/11/22 05:20:09;;;;;;;11.37;8.87;;;;;;;2.92;76.14;94410.19;5021672;28;20186;-76
2022/11/22 05:25:19;;;;;;;9.67;8.73;;;;;;;2.89;76.38;94421.63;5023251;28;20313;-74
2022/11/22 05:27:52;;;;;;;10.17;8.37;;;;;;;2.78;76.42;94425.06;5027329;28;20286;-74
2022/11/22 05:30:18;;;;;;;9.53;8.63;;;;;;;2.84;76.16;94416.78;5047142;28;20217;-73
2022/11/22 05:32:43;;;;;;;10.47;9.27;;;;;;;2.83;76.48;94419.50;5049116;28;20191;-73
2022/11/22 05:35:08;;;;;;;9.83;8.83;;;;;;;2.90;76.17;94415.47;5044851;28;20195;-73
2022/11/22 05:37:34;;;;;;;12.07;9.27;;;;;;;2.94;76.14;94410.84;5048373;28;20283;-73
2022/11/22 05:39:59;;;;;;;11.47;9.93;;;;;;;2.90;76.15;94420.66;5051830;28;20201;-75
2022/11/22 05:42:25;;;;;;;12.03;10.83;;;;;;;2.85;76.76;94415.81;5055197;28;20181;-75
2022/11/22 05:44:50;;;;;;;12.97;11.03;;;;;;;2.94;76.89;94416.91;5043295;28;20180;-74
2022/11/22 05:47:15;;;;;;;12.37;10.50;;;;;;;3.04;76.73;94423.00;5043990;28;20212;-73
2022/11/22 05:49:44;;;;;;;14.37;10.07;;;;;;;3.00;76.58;94413.00;5044041;28;20200;-73
2022/11/22 05:52:10;;;;;;;13.47;10.47;;;;;;;3.15;76.58;94427.34;5051926;28;20186;-74
2022/11/22 05:54:35;;;;;;;16.30;10.53;;;;;;;3.20;75.90;94424.41;5044186;28;20277;-74
2022/11/22 05:57:01;;;;;;;14.00;11.33;;;;;;;3.31;74.76;94427.81;5047845;28;20189;-74
2022/11/22 05:59:26;;;;;;;14.13;10.77;;;;;;;3.14;74.94;94417.91;5047108;28;20215;-73
2022/11/22 06:01:51;;;;;;;15.47;10.60;;;;;;;3.05;75.88;94424.66;5044417;28;20211;-74
2022/11/22 06:04:17;;;;;;;13.03;10.80;;;;;;;3.14;75.93;94427.47;5044539;28;20876;-72
2022/11/22 06:06:47;;;;;;;12.10;10.73;;;;;;;3.14;75.64;94427.47;5043317;28;20200;-73
2022/11/22 06:09:12;;;;;;;11.83;10.63;;;;;;;3.11;75.90;94422.53;5044587;28;20274;-74
2022/11/22 06:11:38;;;;;;;12.93;11.47;;;;;;;3.13;76.43;94437.06;5029944;28;20213;-73
2022/11/22 06:14:03;;;;;;;15.43;12.57;;;;;;;3.21;76.69;94434.69;5046482;28;20188;-74
2022/11/22 06:16:28;;;;;;;18.37;12.57;;;;;;;3.30;76.52;94436.53;5050898;28;20185;-73
2022/11/22 06:18:55;;;;;;;14.07;11.90;;;;;;;3.39;76.22;94440.16;5050005;28;20203;-73
2022/11/22 06:21:24;;;;;;;14.17;11.40;;;;;;;3.27;76.46;94446.34;5052171;28;20223;-71
2022/11/22 06:23:51;;;;;;;13.67;10.87;;;;;;;3.13;76.60;94436.22;5048133;28;20194;-69
2022/11/22 06:26:18;;;;;;;12.57;11.03;;;;;;;3.06;77.34;94434.09;5048963;28;20209;-72
2022/11/22 06:28:46;;;;;;;11.67;10.47;;;;;;;3.30;77.60;94430.50;5052431;28;20204;-71
2022/11/22 06:31:20;;;;;;;12.33;11.03;;;;;;;3.35;77.81;94436.19;5063093;28;20186;-72
2022/11/22 06:33:47;;;;;;;11.33;10.30;;;;;;;3.31;78.18;94434.75;5047204;28;20193;-73
2022/11/22 06:36:18;;;;;;;12.43;11.20;;;;;;;3.56;77.29;94436.22;5044322;28;20212;-71
2022/11/22 06:38:44;;;;;;;12.97;11.50;;;;;;;3.71;76.92;94439.34;5049909;28;20238;-71
2022/11/22 06:41:13;;;;;;;14.53;10.73;;;;;;;3.91;75.73;94440.34;5049061;28;20200;-70
2022/11/22 06:43:39;;;;;;;10.93;9.83;;;;;;;4.00;74.55;94436.97;5051845;28;20189;-70
2022/11/22 06:46:06;;;;;;;9.47;8.57;;;;;;;4.13;73.87;94436.78;5043630;28;20189;-70
2022/11/22 06:48:34;;;;;;;9.97;8.97;;;;;;;4.07;72.93;94463.34;5050264;28;20295;-72
2022/11/22 06:51:04;;;;;;;8.90;8.10;;;;;;;4.15;72.47;94461.75;5048018;28;20537;-72
2022/11/22 06:53:31;;;;;;;9.50;8.70;;;;;;;4.08;72.23;94457.16;5051074;28;20191;-72
2022/11/22 06:56:01;;;;;;;9.17;8.27;;;;;;;4.43;71.50;94455.06;5049263;28;20186;-72
2022/11/22 06:58:26;;;;;;;9.63;8.63;;;;;;;4.29;71.58;94458.00;5063427;28;20233;-73
2022/11/22 07:00:52;;;;;;;9.10;8.30;;;;;;;4.22;72.21;94458.63;5035482;28;20236;-73
2022/11/22 07:03:17;;;;;;;9.80;8.93;;;;;;;4.25;72.11;94460.97;5040143;28;20190;-73
2022/11/22 07:05:50;;;;;;;9.80;8.97;;;;;;;4.27;71.82;94459.88;5036457;28;20193;-75
2022/11/22 07:08:15;;;;;;;10.13;9.23;;;;;;;4.18;72.22;94456.28;5040933;28;20203;-72
2022/11/22 07:10:41;;;;;;;10.07;9.07;;;;;;;4.19;72.19;94464.91;5038656;28;20181;-72
2022/11/22 07:13:06;;;;;;;10.83;9.73;;;;;;;4.23;72.41;94455.91;5043675;28;20195;-72
2022/11/22 07:15:32;;;;;;;10.73;9.83;;;;;;;4.41;72.12;94458.75;5044159;28;20187;-75
2022/11/22 07:17:58;;;;;;;10.53;9.53;;;;;;;4.39;71.75;94445.88;5044468;28;20189;-74
2022/11/22 07:20:23;;;;;;;10.60;9.60;;;;;;;4.45;71.75;94454.13;5041612;28;20219;-74
2022/11/22 07:22:48;;;;;;;10.80;9.90;;;;;;;4.42;71.62;94448.22;5044752;28;20177;-72
2022/11/22 07:25:14;;;;;;;10.17;9.27;;;;;;;4.62;71.12;94445.69;5035665;28;20196;-73
2022/11/22 07:27:39;;;;;;;11.23;10.23;;;;;;;4.70;71.00;94452.88;5055741;28;20193;-73
2022/11/22 07:30:05;;;;;;;11.57;10.47;;;;;;;4.79;70.67;94442.50;5039497;28;20229;-73
2022/11/22 07:32:31;;;;;;;11.43;10.33;;;;;;;4.48;71.24;94440.84;5045163;28;20193;-73
2022/11/22 07:34:56;;;;;;;15.07;11.70;;;;;;;4.72;70.97;94449.19;5049559;28;20192;-74
2022/11/22 07:37:22;;;;;;;11.97;10.77;;;;;;;4.78;71.01;94440.84;5044171;28;20266;-74
2022/11/22 07:39:47;;;;;;;13.13;11.93;;;;;;;4.86;70.79;94425.41;5065768;28;20197;-74
2022/11/22 07:42:12;;;;;;;18.43;12.37;;;;;;;4.99;71.02;94424.34;5065073;28;20227;-74
2022/11/22 07:44:38;;;;;;;14.23;12.73;;;;;;;5.09;70.35;94422.59;5045441;28;20195;-73
2022/11/22 07:47:03;;;;;;;14.57;13.27;;;;;;;5.37;69.34;94402.75;5046697;28;20222;-74
2022/11/22 07:49:29;;;;;;;13.70;12.50;;;;;;;5.62;68.26;94401.41;5047390;28;20186;-75
2022/11/22 07:51:54;;;;;;;12.70;11.40;;;;;;;5.78;67.17;94410.47;5047690;28;20203;-75
2022/11/22 07:54:19;;;;;;;11.27;10.17;;;;;;;5.75;67.30;94408.97;5044740;28;20238;-75
2022/11/22 07:56:45;;;;;;;11.40;10.40;;;;;;;5.70;67.34;94425.03;5040437;28;20250;-74
2022/11/22 07:59:10;;;;;;;12.53;11.33;;;;;;;5.59;67.53;94430.38;5044657;28;20212;-75
2022/11/22 08:01:36;;;;;;;10.63;9.63;;;;;;;5.42;67.91;94423.19;5048898;28;20220;-73
2022/11/22 08:04:01;;;;;;;12.37;9.57;;;;;;;5.35;68.58;94425.53;5043992;28;20189;-76
2022/11/22 08:06:26;;;;;;;10.93;9.93;;;;;;;5.40;68.92;94425.09;5040895;28;20192;-74
2022/11/22 08:08:52;;;;;;;12.83;9.93;;;;;;;5.27;68.73;94430.59;5040793;28;20208;-73
2022/11/22 08:11:17;;;;;;;11.63;10.53;;;;;;;5.27;69.24;94436.63;5058962;28;20244;-75
2022/11/22 08:13:43;;;;;;;11.40;10.30;;;;;;;5.27;69.37;94426.19;5042278;28;20617;-73
2022/11/22 08:16:11;;;;;;;12.00;10.03;;;;;;;5.45;69.02;94415.94;5046964;28;20196;-73
2022/11/22 08:18:37;;;;;;;11.80;10.57;;;;;;;5.50;69.16;94412.91;5039130;28;20208;-72
2022/11/22 08:21:04;;;;;;;13.03;11.50;;;;;;;5.47;69.04;94415.78;5040314;28;20201;-73
2022/11/22 08:23:30;;;;;;;12.20;11.00;;;;;;;5.58;68.18;94415.66;5042787;28;20242;-71
2022/11/22 08:25:57;;;;;;;15.43;11.53;;;;;;;5.91;67.62;94411.84;5043987;28;20185;-74
2022/11/22 08:28:22;;;;;;;13.00;11.70;;;;;;;6.13;67.08;94410.75;5028801;28;20189;-75
2022/11/22 08:30:48;;;;;;;12.37;11.23;;;;;;;6.26;66.52;94400.00;5025149;28;20225;-74
2022/11/22 08:33:13;;;;;;;14.40;13.10;;;;;;;6.35;66.39;94406.16;5018311;28;20209;-74
2022/11/22 08:35:39;;;;;;;16.10;12.70;;;;;;;6.40;66.91;94412.63;5019750;28;20186;-75
2022/11/22 08:38:04;;;;;;;15.60;12.80;;;;;;;6.39;66.16;94399.72;5025492;28;20194;-74
2022/11/22 08:40:29;;;;;;;15.33;12.33;;;;;;;6.42;66.04;94394.22;5024150;28;20260;-74
2022/11/22 08:42:55;;;;;;;13.63;12.23;;;;;;;6.62;66.25;94380.09;5023746;28;20253;-74
2022/11/22 08:45:21;;;;;;;11.63;10.43;;;;;;;6.76;65.84;94378.00;5012891;28;20594;-74
2022/11/22 08:47:47;;;;;;;14.53;11.50;;;;;;;6.70;65.78;94373.34;5020204;28;20217;-74
2022/11/22 08:50:14;;;;;;;12.87;10.63;;;;;;;6.74;65.82;94372.09;5021048;28;20290;-71
2022/11/22 08:52:39;;;;;;;10.60;9.67;;;;;;;6.81;65.47;94360.91;5019171;28;20187;-72
2022/11/22 08:55:05;;;;;;;11.90;10.10;;;;;;;6.70;65.88;94365.50;5021502;28;20193;-74
2022/11/22 08:57:31;;;;;;;10.90;9.90;;;;;;;6.71;66.06;94367.13;5005354;28;20221;-72
2022/11/22 08:59:56;;;;;;;11.00;9.90;;;;;;;6.85;65.45;94357.06;5018299;28;20246;-73
2022/11/22 09:02:22;;;;;;;11.33;10.30;;;;;;;6.91;65.76;94357.44;5013638;28;20202;-72
2022/11/22 09:04:47;;;;;;;12.27;11.17;;;;;;;6.86;65.85;94360.47;5019155;28;20210;-73
2022/11/22 09:07:12;;;;;;;11.70;10.40;;;;;;;6.88;66.06;94369.00;5020100;28;20208;-72
2022/11/22 09:09:38;;;;;;;11.00;9.97;;;;;;;6.90;65.49;94364.47;5016927;28;20241;-74
2022/11/22 09:12:03;;;;;;;11.37;10.00;;;;;;;7.08;65.54;94356.63;5017346;28;20278;-73
2022/11/22 09:14:29;;;;;;;12.07;10.77;;;;;;;7.25;64.93;94362.88;5002282;28;20236;-75
2022/11/22 09:16:54;;;;;;;10.70;9.70;;;;;;;7.29;64.90;94351.16;5020418;28;20197;-74
2022/11/22 09:19:20;;;;;;;11.40;10.20;;;;;;;7.39;64.38;94354.53;5024347;28;20191;-74
2022/11/22 09:21:45;;;;;;;16.23;11.00;;;;;;;7.46;63.93;94350.34;5020822;28;20206;-72
2022/11/22 09:24:10;;;;;;;14.33;10.23;;;;;;;7.57;64.18;94357.16;5021341;28;20190;-74
2022/11/22 09:26:36;;;;;;;10.73;9.80;;;;;;;7.54;63.17;94356.59;5020738;28;20182;-72
2022/11/22 09:29:02;;;;;;;11.40;9.90;;;;;;;7.57;62.27;94354.53;5008427;28;20217;-71
2022/11/22 09:31:29;;;;;;;10.40;9.40;;;;;;;7.42;62.72;94362.06;5044398;28;20181;-71
2022/11/22 09:33:55;;;;;;;10.70;9.73;;;;;;;7.23;62.95;94343.91;5040847;28;20189;-72
2022/11/22 09:36:25;;;;;;;11.93;9.83;;;;;;;7.44;63.26;94335.78;5041889;28;20243;-72
2022/11/22 09:38:51;;;;;;;11.77;10.57;;;;;;;7.60;62.64;94338.53;5044953;28;20188;-74
2022/11/22 09:41:43;;;;;;;10.93;9.73;;;;;;;7.68;62.26;94337.78;5037715;28;20225;-76
2022/11/22 09:44:41;;;;;;;10.50;9.60;;;;;;;7.73;62.18;94333.75;5044488;28;20268;-74
2022/11/22 09:47:34;;;;;;;9.60;8.60;;;;;;;7.80;61.64;94339.19;5050229;28;20184;-74
2022/11/22 09:50:25;;;;;;;9.00;8.20;;;;;;;7.91;61.34;94341.59;5051104;28;20243;-74
2022/11/22 09:52:58;;;;;;;10.50;9.50;;;;;;;7.91;60.85;94332.88;5052152;28;20177;-74
2022/11/22 09:55:39;;;;;;;12.87;10.57;;;;;;;7.97;60.93;94339.34;5044912;28;20295;-73
2022/11/22 09:58:23;;;;;;;12.33;11.13;;;;;;;7.89;61.28;94322.59;5065058;28;20188;-73
2022/11/22 10:00:49;;;;;;;11.37;10.27;;;;;;;7.86;61.59;94322.88;5060637;28;20276;-71
2022/11/22 10:03:27;;;;;;;12.07;9.47;;;;;;;7.93;61.00;94318.66;5048447;28;20260;-70
2022/11/22 10:05:57;;;;;;;10.57;9.53;;;;;;;7.92;61.08;94319.66;5048171;28;20213;-67
2022/11/22 10:08:35;;;;;;;11.23;8.73;;;;;;;8.07;60.41;94316.47;5049306;28;20238;-70
2022/11/22 10:11:04;;;;;;;10.90;9.70;;;;;;;7.97;60.43;94308.72;5051476;28;20176;-72
2022/11/22 10:13:37;;;;;;;12.03;8.97;;;;;;;8.11;60.51;94310.78;5048765;28;20193;-72
2022/11/22 10:16:58;;;;;;;10.57;9.57;;;;;;;8.15;60.76;94300.81;5045236;28;20213;-72
2022/11/22 10:19:36;;;;;;;10.40;9.13;;;;;;;8.19;59.63;94299.53;4885760;29;20205;-72
2022/11/22 10:22:16;;;;;;;10.43;9.50;;;;;;;8.10;60.11;94293.44;4878093;29;20226;-73
2022/11/22 10:24:42;;;;;;;12.27;9.53;;;;;;;8.31;59.12;94293.06;4891439;29;20202;-73
2022/11/22 10:27:13;;;;;;;11.03;9.93;;;;;;;8.18;59.17;94280.38;4878928;29;20239;-72
2022/11/22 10:29:51;;;;;;;11.63;10.43;;;;;;;8.10;59.70;94269.03;4878985;29;20413;-68
2022/11/22 10:32:31;;;;;;;11.90;9.30;;;;;;;8.21;59.34;94262.72;4888756;29;20199;-72
2022/11/22 10:35:22;;;;;;;16.53;10.50;;;;;;;8.21;60.48;94268.78;4877737;29;20219;-69
2022/11/22 10:38:20;;;;;;;10.57;9.57;;;;;;;8.26;60.53;94263.06;4884089;29;20253;-71
2022/11/22 10:41:00;;;;;;;11.27;10.07;;;;;;;8.39;60.76;94256.47;4833502;29;20241;-69
2022/11/22 10:43:55;;;;;;;11.40;9.57;;;;;;;8.67;59.85;94250.19;4838456;29;20204;-69
2022/11/22 10:46:37;;;;;;;10.57;8.90;;;;;;;8.53;59.57;94241.13;4832655;29;20205;-69
2022/11/22 10:49:28;;;;;;;10.43;9.17;;;;;;;8.61;59.64;94251.63;4835746;29;20252;-70
2022/11/22 10:52:27;;;;;;;9.90;8.90;;;;;;;8.39;59.95;94246.00;4836175;29;20201;-70
2022/11/22 10:55:08;;;;;;;11.13;9.97;;;;;;;8.47;59.77;94239.94;4870694;29;20254;-69
2022/11/22 10:57:51;;;;;;;11.30;10.27;;;;;;;8.43;59.70;94232.56;4965523;28;20312;-70
2022/11/22 11:00:25;;;;;;;11.83;9.20;;;;;;;8.18;60.91;94229.81;4969856;28;20203;-70
2022/11/22 11:03:02;;;;;;;11.53;9.60;;;;;;;8.21;60.59;94247.84;4965340;28;20251;-69
2022/11/22 11:05:45;;;;;;;11.80;9.00;;;;;;;8.28;60.79;94240.97;4971171;28;20305;-70
2022/11/22 11:08:15;;;;;;;10.37;9.27;;;;;;;8.25;61.50;94238.66;4966868;28;20247;-70
2022/11/22 11:10:42;;;;;;;10.37;9.27;;;;;;;8.21;61.20;94226.06;4985018;28;20191;-70
2022/11/22 11:13:27;;;;;;;10.50;9.60;;;;;;;8.31;60.23;94222.34;4965474;28;20191;-70
2022/11/22 11:15:56;;;;;;;10.40;9.40;;;;;;;8.52;59.75;94229.81;4985042;28;20243;-70
2022/11/22 11:18:48;;;;;;;10.40;9.23;;;;;;;8.59;59.46;94230.00;5023214;28;20776;-70
2022/11/22 11:21:14;;;;;;;11.43;9.03;;;;;;;8.51;59.45;94224.75;4975719;28;20204;-69
2022/11/22 11:23:40;;;;;;;13.67;11.37;;;;;;;8.56;59.85;94225.91;4972802;28;20217;-69
2022/11/22 11:26:14;;;;;;;15.77;13.53;;;;;;;8.69;59.62;94230.69;4956959;28;20218;-70
2022/11/22 11:28:40;;;;;;;10.53;9.43;;;;;;;8.59;59.43;94220.34;4974017;28;20294;-70
2022/11/22 11:31:07;;;;;;;12.10;10.20;;;;;;;8.45;60.05;94217.53;4970829;28;20228;-71
2022/11/22 11:33:37;;;;;;;11.40;10.30;;;;;;;8.37;60.43;94221.72;4961597;28;20195;-71
2022/11/22 11:36:09;;;;;;;12.10;10.80;;;;;;;8.40;60.38;94210.13;4965427;28;20203;-72
2022/11/22 11:38:40;;;;;;;14.83;10.87;;;;;;;8.48;60.29;94201.47;4970195;28;20231;-72
2022/11/22 11:41:21;;;;;;;12.47;9.63;;;;;;;8.63;60.41;94199.88;4965949;28;20262;-70
2022/11/22 11:43:49;;;;;;;15.83;9.63;;;;;;;8.65;60.23;94204.97;4978706;28;20188;-70
2022/11/22 11:46:23;;;;;;;11.80;9.63;;;;;;;8.70;59.87;94200.06;4951170;28;20289;-72
2022/11/22 11:48:51;;;;;;;12.67;9.90;;;;;;;8.73;59.45;94197.94;4961862;28;20637;-70
2022/11/22 11:51:21;;;;;;;11.20;9.50;;;;;;;8.53;60.52;94179.06;4977418;28;20275;-69